Time;durP1;ratioP1;P1;durP2;ratioP2;P2;SDS_P1;SDS_P2;PMS_P1;PMS_P2;Temp;Humidity;BMP_temperature;BMP_pressure;BME280_temperature;BME280_humidity;BME280_pressure;Samples;Min_cycle;Max_cycle;Signal;HPM_P1;HPM_P2
2023/05/31 00:02:02;;;;;;;2.97;0.93;;;16.00;70.30;;;;;;5094267;28;20440;-84
2023/05/31 00:04:28;;;;;;;1.67;0.70;;;16.00;70.20;;;;;;5094267;28;20492;-84
2023/05/31 00:06:55;;;;;;;0.87;0.60;;;16.00;70.10;;;;;;5094675;28;20444;-83
2023/05/31 00:09:22;;;;;;;1.20;0.87;;;15.90;69.90;;;;;;5094028;28;20444;-83
2023/05/31 00:11:49;;;;;;;1.40;0.60;;;15.90;70.30;;;;;;5094089;28;20436;-84
2023/05/31 00:14:15;;;;;;;0.97;0.73;;;15.90;70.10;;;;;;5094234;28;20444;-84
2023/05/31 00:16:42;;;;;;;0.63;0.63;;;15.90;70.40;;;;;;5094044;28;20827;-84
2023/05/31 00:19:10;;;;;;;1.83;0.70;;;15.90;70.30;;;;;;5094196;28;20448;-84
2023/05/31 00:21:37;;;;;;;2.33;0.70;;;15.80;70.30;;;;;;5093807;28;21017;-83
2023/05/31 00:24:04;;;;;;;0.60;0.60;;;15.80;70.30;;;;;;5093986;28;20483;-84
2023/05/31 00:26:30;;;;;;;0.80;0.80;;;15.80;70.40;;;;;;5094077;28;20455;-84
2023/05/31 00:28:57;;;;;;;1.00;0.60;;;15.80;70.80;;;;;;5093888;28;20467;-84
2023/05/31 00:31:24;;;;;;;0.60;0.60;;;15.80;70.80;;;;;;5094024;28;20461;-84
2023/05/31 00:33:51;;;;;;;3.27;1.37;;;15.70;70.30;;;;;;5093998;28;20444;-84
2023/05/31 00:36:19;;;;;;;0.60;0.53;;;15.80;70.10;;;;;;5093575;28;20472;-84
2023/05/31 00:38:45;;;;;;;0.90;0.80;;;15.70;70.10;;;;;;5093667;28;20436;-84
2023/05/31 00:41:12;;;;;;;1.10;0.83;;;15.70;69.90;;;;;;5093894;28;20437;-84
2023/05/31 00:43:39;;;;;;;0.50;0.50;;;15.70;69.60;;;;;;5093392;28;20831;-84
2023/05/31 00:46:07;;;;;;;3.73;0.60;;;15.70;69.70;;;;;;5093722;28;20494;-84
2023/05/31 00:48:34;;;;;;;3.23;1.00;;;15.60;69.60;;;;;;5093538;28;20452;-84
2023/05/31 00:51:02;;;;;;;2.07;0.83;;;15.70;68.80;;;;;;5093737;28;20451;-84
2023/05/31 00:53:30;;;;;;;1.03;0.60;;;15.60;69.10;;;;;;5093194;28;20944;-84
2023/05/31 00:55:59;;;;;;;0.77;0.60;;;15.60;69.00;;;;;;5092952;28;20906;-84
2023/05/31 00:58:28;;;;;;;2.00;0.50;;;15.60;68.70;;;;;;5093740;28;20428;-84
2023/05/31 01:00:56;;;;;;;1.03;0.70;;;15.60;68.70;;;;;;5094137;28;20451;-83
2023/05/31 01:03:22;;;;;;;0.70;0.60;;;15.60;68.30;;;;;;5093398;28;20436;-84
2023/05/31 01:05:50;;;;;;;0.73;0.50;;;15.50;68.60;;;;;;5093409;28;20490;-84
2023/05/31 01:08:17;;;;;;;1.17;0.53;;;15.50;68.50;;;;;;5093579;28;20447;-84
2023/05/31 01:10:46;;;;;;;0.60;0.60;;;15.40;68.10;;;;;;5093745;28;20534;-84
2023/05/31 01:13:21;;;;;;;1.07;0.60;;;15.40;68.50;;;;;;5093151;28;20920;-84
2023/05/31 01:15:56;;;;;;;1.20;0.50;;;15.40;68.60;;;;;;5093409;28;20460;-86
2023/05/31 01:18:32;;;;;;;2.77;0.93;;;15.30;68.30;;;;;;5093816;28;20440;-84
2023/05/31 01:21:01;;;;;;;0.87;0.77;;;15.40;68.40;;;;;;5093182;28;20833;-84
2023/05/31 01:23:49;;;;;;;1.17;1.07;;;15.40;68.20;;;;;;5093457;28;20547;-84
2023/05/31 01:26:37;;;;;;;2.30;0.83;;;15.30;68.00;;;;;;5093595;28;20452;-85
2023/05/31 01:29:08;;;;;;;0.63;0.50;;;15.30;68.10;;;;;;5093382;28;20444;-83
2023/05/31 01:31:36;;;;;;;4.23;0.60;;;15.30;68.30;;;;;;5093143;28;21035;-83
2023/05/31 01:34:04;;;;;;;1.37;0.80;;;15.30;68.20;;;;;;5093032;28;20436;-84
2023/05/31 01:36:32;;;;;;;1.47;0.70;;;15.20;68.50;;;;;;5093045;28;20851;-85
2023/05/31 01:38:59;;;;;;;1.93;0.80;;;15.20;68.50;;;;;;5092899;28;20543;-84
2023/05/31 01:41:29;;;;;;;0.90;0.50;;;15.20;68.50;;;;;;5093018;28;21062;-87
2023/05/31 01:43:58;;;;;;;0.80;0.77;;;15.20;68.40;;;;;;5092977;28;20444;-84
2023/05/31 01:46:25;;;;;;;1.23;0.77;;;15.20;68.60;;;;;;5093010;28;20820;-84
2023/05/31 01:48:53;;;;;;;0.50;0.50;;;15.20;68.60;;;;;;5093574;28;20459;-84
2023/05/31 01:51:21;;;;;;;0.60;0.60;;;15.20;68.60;;;;;;5093186;28;20448;-84
2023/05/31 01:53:48;;;;;;;1.47;0.70;;;15.10;68.80;;;;;;5092796;28;20456;-83
2023/05/31 01:56:15;;;;;;;8.70;1.37;;;15.10;69.00;;;;;;5093041;28;20464;-84
2023/05/31 01:58:47;;;;;;;0.60;0.53;;;15.10;69.00;;;;;;5092800;28;20451;-84
2023/05/31 02:01:17;;;;;;;0.53;0.53;;;15.00;69.10;;;;;;5093155;28;20443;-85
2023/05/31 02:03:43;;;;;;;0.50;0.50;;;15.00;69.20;;;;;;5093127;28;20482;-85
2023/05/31 02:06:12;;;;;;;2.93;0.80;;;15.00;69.30;;;;;;5094000;28;20545;-84
2023/05/31 02:08:40;;;;;;;0.90;0.73;;;15.00;69.20;;;;;;5096651;28;20443;-84
2023/05/31 02:11:07;;;;;;;4.43;1.10;;;15.00;69.20;;;;;;5096301;28;20910;-83
2023/05/31 02:13:35;;;;;;;0.60;0.57;;;15.00;69.40;;;;;;5096638;28;20439;-84
2023/05/31 02:16:02;;;;;;;1.13;0.80;;;14.90;69.60;;;;;;5096548;28;20827;-83
2023/05/31 02:18:30;;;;;;;0.90;0.70;;;14.80;69.70;;;;;;5096308;28;20939;-84
2023/05/31 02:20:57;;;;;;;1.60;0.90;;;14.90;70.40;;;;;;5096304;28;20514;-83
2023/05/31 02:23:24;;;;;;;0.60;0.60;;;14.80;69.50;;;;;;5096811;28;20443;-83
2023/05/31 02:25:51;;;;;;;0.73;0.60;;;14.80;69.50;;;;;;5096365;28;20560;-84
2023/05/31 02:28:19;;;;;;;1.37;0.47;;;14.80;69.50;;;;;;5096435;28;20448;-84
2023/05/31 02:30:55;;;;;;;1.47;1.37;;;14.80;69.70;;;;;;5096028;28;20459;-86
2023/05/31 02:33:21;;;;;;;5.17;0.80;;;14.80;69.80;;;;;;5096309;28;20438;-83
2023/05/31 02:35:50;;;;;;;1.00;0.63;;;14.80;69.60;;;;;;5095816;28;20456;-83
2023/05/31 02:38:17;;;;;;;1.13;0.73;;;14.80;70.10;;;;;;5096230;28;20859;-84
2023/05/31 02:40:44;;;;;;;2.53;0.60;;;14.70;70.00;;;;;;5095738;28;20444;-84
2023/05/31 02:43:11;;;;;;;2.10;0.77;;;14.70;70.10;;;;;;5096063;28;20428;-83
2023/05/31 02:45:37;;;;;;;2.43;0.70;;;14.70;70.00;;;;;;5095882;28;20533;-84
2023/05/31 02:48:05;;;;;;;1.40;0.80;;;14.70;70.00;;;;;;5095701;28;20428;-83
2023/05/31 02:50:32;;;;;;;1.70;0.80;;;14.60;70.00;;;;;;5095946;28;20480;-83
2023/05/31 02:53:00;;;;;;;1.43;0.87;;;14.60;70.60;;;;;;5095849;28;20454;-83
2023/05/31 02:55:27;;;;;;;0.70;0.50;;;14.50;70.50;;;;;;5095811;28;20473;-83
2023/05/31 02:57:54;;;;;;;2.93;0.57;;;14.50;70.50;;;;;;5095813;28;20452;-84
2023/05/31 03:00:20;;;;;;;1.80;0.73;;;14.60;70.40;;;;;;5096320;28;20448;-83
2023/05/31 03:02:47;;;;;;;1.80;0.60;;;14.50;70.30;;;;;;5095437;28;20436;-83
2023/05/31 03:05:14;;;;;;;2.93;0.80;;;14.50;70.50;;;;;;5095511;28;20483;-84
2023/05/31 03:07:41;;;;;;;1.67;0.60;;;14.50;70.60;;;;;;5095593;28;20456;-84
2023/05/31 03:10:10;;;;;;;1.73;0.80;;;14.50;70.60;;;;;;5095279;28;20432;-83
2023/05/31 03:12:37;;;;;;;1.80;0.70;;;14.40;70.70;;;;;;5095183;28;20487;-83
2023/05/31 03:15:04;;;;;;;2.47;0.80;;;14.40;71.20;;;;;;5095423;28;20525;-83
2023/05/31 03:17:31;;;;;;;2.10;0.90;;;14.40;71.40;;;;;;5094349;28;20444;-83
2023/05/31 03:19:58;;;;;;;1.37;0.67;;;14.40;71.10;;;;;;5094980;28;20510;-83
2023/05/31 03:22:25;;;;;;;2.20;0.73;;;14.30;73.00;;;;;;5095321;28;20436;-83
2023/05/31 03:24:51;;;;;;;1.10;0.50;;;14.30;75.00;;;;;;5095043;28;20488;-83
2023/05/31 03:27:20;;;;;;;1.37;0.70;;;14.30;76.00;;;;;;5095224;28;20822;-83
2023/05/31 03:29:46;;;;;;;0.83;0.60;;;14.30;75.00;;;;;;5094876;28;20444;-83
2023/05/31 03:32:13;;;;;;;0.70;0.70;;;14.20;76.20;;;;;;5095118;28;20448;-83
2023/05/31 03:34:40;;;;;;;2.10;0.63;;;14.20;76.60;;;;;;5094988;28;20464;-83
2023/05/31 03:37:06;;;;;;;0.50;0.43;;;14.10;77.40;;;;;;5094987;28;20447;-83
2023/05/31 03:39:33;;;;;;;0.80;0.70;;;14.00;78.40;;;;;;5094984;28;20818;-83
2023/05/31 03:42:01;;;;;;;0.93;0.70;;;13.90;79.30;;;;;;5094919;28;20428;-83
2023/05/31 03:44:29;;;;;;;1.30;0.80;;;13.90;78.70;;;;;;5094832;28;20518;-83
2023/05/31 03:46:56;;;;;;;0.60;0.60;;;13.90;79.30;;;;;;5094813;28;20436;-83
2023/05/31 03:49:23;;;;;;;1.13;0.50;;;13.90;80.00;;;;;;5094748;28;20450;-83
2023/05/31 03:51:50;;;;;;;0.40;0.40;;;13.80;79.50;;;;;;5094744;28;20451;-83
2023/05/31 03:54:18;;;;;;;0.60;0.60;;;13.80;79.80;;;;;;5094644;28;20440;-83
2023/05/31 03:56:44;;;;;;;1.33;1.07;;;13.80;80.50;;;;;;5094636;28;20440;-83
2023/05/31 03:59:11;;;;;;;0.70;0.50;;;13.80;80.40;;;;;;5094345;28;20440;-82
2023/05/31 04:01:39;;;;;;;0.60;0.60;;;13.80;80.70;;;;;;5094241;28;20965;-83
2023/05/31 04:04:06;;;;;;;0.80;0.73;;;13.80;81.40;;;;;;5094076;28;20805;-83
2023/05/31 04:06:33;;;;;;;1.00;0.60;;;13.90;82.50;;;;;;5094341;28;20490;-83
2023/05/31 04:09:00;;;;;;;0.97;0.70;;;13.90;82.60;;;;;;5094055;28;20977;-83
2023/05/31 04:11:26;;;;;;;0.70;0.60;;;13.90;82.40;;;;;;5094346;28;20600;-82
2023/05/31 04:13:53;;;;;;;1.90;0.70;;;13.90;82.00;;;;;;5094301;28;20475;-83
2023/05/31 04:16:20;;;;;;;0.70;0.53;;;13.90;81.40;;;;;;5094192;28;20836;-83
2023/05/31 04:18:48;;;;;;;1.93;0.80;;;13.90;80.30;;;;;;5094199;28;20450;-83
2023/05/31 04:21:15;;;;;;;2.10;0.50;;;13.90;80.90;;;;;;5093755;28;20798;-83
2023/05/31 04:23:41;;;;;;;0.67;0.63;;;14.00;82.20;;;;;;5093862;28;20432;-83
2023/05/31 04:26:16;;;;;;;0.90;0.53;;;14.10;82.80;;;;;;5093716;28;20483;-83
2023/05/31 04:28:43;;;;;;;0.70;0.57;;;14.10;82.10;;;;;;5093896;28;20493;-83
2023/05/31 04:31:10;;;;;;;1.03;0.70;;;14.10;81.60;;;;;;5094211;28;20552;-84
2023/05/31 04:33:38;;;;;;;0.60;0.60;;;14.10;80.00;;;;;;5094114;28;20445;-83
2023/05/31 04:36:08;;;;;;;0.77;0.67;;;14.20;81.30;;;;;;5094206;28;20460;-83
2023/05/31 04:38:35;;;;;;;0.60;0.60;;;14.20;81.50;;;;;;5094026;28;20416;-83
2023/05/31 04:41:03;;;;;;;0.60;0.60;;;14.30;80.70;;;;;;5093791;28;20448;-83
2023/05/31 04:43:30;;;;;;;0.97;0.60;;;14.40;79.90;;;;;;5093833;28;20448;-84
2023/05/31 04:45:57;;;;;;;2.20;0.70;;;14.40;79.30;;;;;;5093783;28;20488;-83
2023/05/31 04:48:26;;;;;;;1.00;0.80;;;14.50;78.40;;;;;;5093749;28;20538;-83
2023/05/31 04:50:54;;;;;;;1.90;0.80;;;14.60;79.50;;;;;;5093787;28;20455;-84
2023/05/31 04:53:23;;;;;;;2.20;0.63;;;14.60;80.30;;;;;;5093700;28;20501;-83
2023/05/31 04:55:51;;;;;;;2.20;0.97;;;14.60;80.70;;;;;;5093668;28;20483;-83
2023/05/31 04:58:19;;;;;;;3.30;0.67;;;14.60;81.10;;;;;;5093612;28;20891;-83
2023/05/31 05:00:46;;;;;;;0.70;0.70;;;14.60;81.00;;;;;;5093565;28;20470;-84
2023/05/31 05:03:13;;;;;;;2.30;0.50;;;14.70;81.30;;;;;;5093441;28;20452;-83
2023/05/31 05:05:40;;;;;;;3.13;1.10;;;14.70;82.00;;;;;;5093391;28;20502;-83
2023/05/31 05:08:07;;;;;;;1.20;0.70;;;14.80;80.20;;;;;;5093585;28;20558;-83
2023/05/31 05:10:35;;;;;;;0.60;0.40;;;14.90;79.10;;;;;;5093526;28;20471;-84
2023/05/31 05:13:02;;;;;;;1.23;0.80;;;15.00;79.70;;;;;;5093467;28;20444;-84
2023/05/31 05:15:28;;;;;;;1.70;0.70;;;15.10;76.20;;;;;;5093166;28;20971;-84
2023/05/31 05:17:55;;;;;;;1.53;0.70;;;15.20;76.00;;;;;;5093492;28;20444;-83
2023/05/31 05:20:23;;;;;;;0.70;0.47;;;15.40;76.00;;;;;;5093073;28;21049;-83
2023/05/31 05:22:53;;;;;;;1.30;0.80;;;15.40;75.60;;;;;;5093376;28;20521;-83
2023/05/31 05:25:20;;;;;;;1.10;0.83;;;15.50;76.40;;;;;;5093065;28;20452;-83
2023/05/31 05:27:48;;;;;;;0.40;0.40;;;15.60;75.60;;;;;;5093310;28;20451;-84
2023/05/31 05:30:15;;;;;;;0.60;0.60;;;15.70;75.30;;;;;;5093137;28;20945;-84
2023/05/31 05:32:42;;;;;;;0.90;0.57;;;15.80;74.80;;;;;;5093340;28;20440;-84
2023/05/31 05:35:09;;;;;;;0.90;0.77;;;15.90;74.60;;;;;;5093661;28;20464;-85
2023/05/31 05:37:36;;;;;;;0.70;0.70;;;16.00;73.20;;;;;;5094144;28;20439;-85
2023/05/31 05:40:06;;;;;;;0.70;0.70;;;16.10;74.40;;;;;;5093325;28;20829;-85
2023/05/31 05:42:36;;;;;;;1.70;1.07;;;16.10;73.50;;;;;;5097094;28;20447;-86
2023/05/31 05:45:05;;;;;;;2.30;0.90;;;16.20;74.10;;;;;;5096925;28;20463;-84
2023/05/31 05:47:31;;;;;;;0.60;0.50;;;16.40;74.20;;;;;;5096909;28;20476;-86
2023/05/31 05:49:58;;;;;;;0.80;0.70;;;16.40;74.80;;;;;;5097302;28;20458;-84
2023/05/31 05:52:25;;;;;;;0.70;0.60;;;16.60;73.50;;;;;;5097113;28;20436;-85
2023/05/31 05:54:52;;;;;;;0.83;0.80;;;16.70;71.80;;;;;;5096925;28;21013;-85
2023/05/31 05:57:19;;;;;;;1.50;0.80;;;16.80;71.40;;;;;;5097035;28;20935;-86
2023/05/31 05:59:46;;;;;;;1.00;1.00;;;16.90;72.30;;;;;;5097221;28;20447;-85
2023/05/31 06:02:14;;;;;;;1.07;0.80;;;17.00;71.00;;;;;;5096992;28;20817;-84
2023/05/31 06:04:41;;;;;;;1.20;0.77;;;17.10;71.00;;;;;;5097115;28;20468;-85
2023/05/31 06:07:08;;;;;;;1.73;0.70;;;17.20;72.00;;;;;;5096764;28;20492;-84
2023/05/31 06:09:35;;;;;;;0.60;0.60;;;17.40;71.90;;;;;;5097015;28;20462;-87
2023/05/31 06:12:02;;;;;;;1.17;0.93;;;17.50;71.40;;;;;;5096862;28;20443;-83
2023/05/31 06:14:29;;;;;;;1.73;0.90;;;17.70;71.80;;;;;;5096364;28;20983;-84
2023/05/31 06:16:55;;;;;;;1.20;0.70;;;17.80;70.50;;;;;;5096745;28;20451;-84
2023/05/31 06:19:24;;;;;;;2.00;0.70;;;18.00;70.50;;;;;;5096454;28;20819;-84
2023/05/31 06:21:51;;;;;;;0.70;0.70;;;18.10;71.20;;;;;;5096138;28;20479;-84
2023/05/31 06:24:18;;;;;;;0.97;0.77;;;18.40;71.20;;;;;;5096552;28;20943;-88
2023/05/31 06:26:45;;;;;;;1.47;0.90;;;18.70;69.10;;;;;;5096472;28;20815;-87
2023/05/31 06:29:12;;;;;;;0.63;0.50;;;18.90;68.60;;;;;;5096565;28;20444;-85
2023/05/31 06:31:39;;;;;;;1.93;0.67;;;19.20;68.20;;;;;;5096441;28;20448;-85
2023/05/31 06:34:06;;;;;;;1.63;0.70;;;19.40;68.40;;;;;;5096433;28;20491;-86
2023/05/31 06:36:35;;;;;;;5.17;0.60;;;19.80;67.10;;;;;;5096902;28;20451;-87
2023/05/31 06:39:01;;;;;;;1.00;0.80;;;20.00;66.10;;;;;;5096318;28;20997;-87
2023/05/31 06:41:32;;;;;;;3.37;0.80;;;20.00;65.50;;;;;;5096110;28;20448;-86
2023/05/31 06:43:59;;;;;;;0.87;0.57;;;20.00;66.80;;;;;;5096735;28;20443;-87
2023/05/31 06:46:25;;;;;;;1.20;0.80;;;20.00;65.70;;;;;;5096533;28;20575;-88
2023/05/31 06:48:52;;;;;;;0.70;0.70;;;20.10;67.00;;;;;;5096822;28;20452;-86
2023/05/31 06:51:20;;;;;;;0.90;0.60;;;20.20;66.50;;;;;;5096303;28;20443;-87
2023/05/31 06:53:48;;;;;;;0.90;0.67;;;20.30;66.00;;;;;;5096465;28;20440;-86
2023/05/31 06:56:15;;;;;;;1.27;1.00;;;20.40;67.00;;;;;;5096392;28;20464;-86
2023/05/31 06:58:43;;;;;;;0.83;0.63;;;20.40;65.90;;;;;;5096412;28;20440;-84
2023/05/31 07:01:10;;;;;;;2.90;1.10;;;20.40;65.90;;;;;;5095898;28;20448;-84
2023/05/31 07:03:36;;;;;;;1.00;0.80;;;20.40;66.50;;;;;;5096326;28;20954;-85
2023/05/31 07:06:03;;;;;;;1.73;1.00;;;20.40;67.50;;;;;;5095846;28;20487;-85
2023/05/31 07:08:30;;;;;;;0.50;0.50;;;20.60;66.40;;;;;;5097291;28;20447;-86
2023/05/31 07:10:58;;;;;;;3.30;1.03;;;20.70;65.70;;;;;;5096719;28;20435;-86
2023/05/31 07:13:25;;;;;;;3.23;0.80;;;20.80;66.60;;;;;;5096425;28;20447;-88
2023/05/31 07:15:52;;;;;;;2.23;0.90;;;21.00;66.10;;;;;;5096091;28;20524;-86
2023/05/31 07:18:18;;;;;;;1.90;1.20;;;21.30;67.30;;;;;;5096168;28;20447;-87
2023/05/31 07:20:45;;;;;;;1.37;1.13;;;21.60;65.40;;;;;;5095573;28;20985;-87
2023/05/31 07:23:12;;;;;;;1.30;1.10;;;21.90;67.50;;;;;;5095964;28;20447;-87
2023/05/31 07:25:38;;;;;;;1.00;0.90;;;22.10;64.70;;;;;;5095683;28;20467;-87
2023/05/31 07:28:07;;;;;;;0.80;0.80;;;22.50;64.80;;;;;;5095453;28;20440;-86
2023/05/31 07:30:33;;;;;;;1.20;1.10;;;22.80;64.10;;;;;;5095477;28;20522;-86
2023/05/31 07:33:00;;;;;;;1.93;1.17;;;23.10;64.50;;;;;;5095869;28;20565;-86
2023/05/31 07:35:27;;;;;;;1.88;0.95;;;23.70;62.50;;;;;;5095631;28;20586;-87
2023/05/31 07:37:53;;;;;;;1.27;0.80;;;24.20;60.60;;;;;;5095531;28;20201;-85
2023/05/31 07:40:20;;;;;;;1.90;0.88;;;24.70;61.00;;;;;;5095674;28;20213;-88
2023/05/31 07:42:47;;;;;;;1.88;0.95;;;25.50;58.90;;;;;;5095653;28;20205;-87
2023/05/31 07:45:16;;;;;;;0.98;0.98;;;26.30;57.80;;;;;;5095318;28;20228;-86
2023/05/31 07:47:42;;;;;;;0.85;0.80;;;26.70;56.80;;;;;;5095787;28;20239;-86
2023/05/31 07:50:09;;;;;;;2.40;1.40;;;27.20;56.50;;;;;;5095269;28;20211;-88
2023/05/31 07:52:36;;;;;;;4.72;0.85;;;28.50;53.70;;;;;;5095437;28;20212;-88
2023/05/31 07:55:03;;;;;;;1.25;0.95;;;29.20;52.20;;;;;;5095006;28;20714;-86
2023/05/31 07:57:30;;;;;;;1.15;0.60;;;29.70;50.60;;;;;;5094943;28;20206;-88
2023/05/31 07:59:58;;;;;;;2.50;0.90;;;30.30;50.50;;;;;;5094889;28;20186;-88
2023/05/31 08:02:26;;;;;;;2.08;0.95;;;30.40;48.90;;;;;;5095713;28;20208;-88
2023/05/31 08:04:54;;;;;;;1.27;0.80;;;30.00;49.10;;;;;;5095188;28;20230;-87
2023/05/31 08:07:21;;;;;;;0.65;0.65;;;29.60;50.00;;;;;;5095127;28;20214;-86
2023/05/31 08:09:48;;;;;;;0.60;0.60;;;29.10;49.70;;;;;;5095394;28;20253;-87
2023/05/31 08:12:15;;;;;;;1.48;0.80;;;29.00;50.20;;;;;;5094799;28;20197;-89
2023/05/31 08:14:41;;;;;;;2.17;0.82;;;29.20;50.80;;;;;;5095566;28;20236;-90
2023/05/31 08:17:08;;;;;;;0.80;0.80;;;29.30;49.90;;;;;;5095350;28;20202;-88
2023/05/31 08:19:36;;;;;;;0.98;0.98;;;29.30;49.50;;;;;;5094764;28;20205;-87
2023/05/31 08:22:04;;;;;;;1.58;0.98;;;29.00;50.70;;;;;;5094528;28;20547;-86
2023/05/31 08:24:30;;;;;;;2.83;1.00;;;28.80;50.30;;;;;;5094724;28;20224;-87
2023/05/31 08:26:58;;;;;;;0.70;0.70;;;28.80;50.60;;;;;;5094665;28;20228;-87
2023/05/31 08:29:25;;;;;;;1.05;0.75;;;28.90;51.10;;;;;;5094980;28;20207;-88
2023/05/31 08:31:51;;;;;;;2.38;0.73;;;29.20;50.60;;;;;;5094603;28;20209;-90
2023/05/31 08:34:19;;;;;;;0.63;0.63;;;29.30;50.40;;;;;;5094622;28;20201;-89
2023/05/31 08:36:48;;;;;;;0.82;0.82;;;28.90;49.40;;;;;;5094864;28;20195;-87
2023/05/31 08:39:15;;;;;;;3.63;0.77;;;28.50;49.80;;;;;;5094313;28;20255;-86
2023/05/31 08:41:49;;;;;;;0.70;0.70;;;28.10;51.60;;;;;;5094636;28;20225;-89
2023/05/31 08:44:15;;;;;;;0.80;0.75;;;27.70;51.80;;;;;;5100397;28;20254;-86
2023/05/31 08:46:44;;;;;;;0.75;0.75;;;27.20;51.70;;;;;;5097642;28;20222;-88
2023/05/31 08:49:11;;;;;;;0.73;0.68;;;26.70;53.20;;;;;;5094586;28;20199;-90
2023/05/31 08:51:40;;;;;;;0.60;0.60;;;26.40;53.30;;;;;;5094801;28;20206;-90
2023/05/31 08:54:10;;;;;;;1.02;0.90;;;26.00;53.30;;;;;;5094601;28;20205;-87
2023/05/31 08:56:38;;;;;;;0.60;0.60;;;25.80;54.30;;;;;;5094360;28;20237;-88
2023/05/31 08:59:10;;;;;;;2.10;0.98;;;25.80;56.30;;;;;;5093960;28;20193;-87
2023/05/31 09:01:38;;;;;;;1.25;0.60;;;26.30;54.40;;;;;;5094699;28;20193;-88
2023/05/31 09:04:06;;;;;;;0.95;0.80;;;26.70;52.90;;;;;;5094491;28;20205;-89
2023/05/31 09:06:33;;;;;;;2.60;0.88;;;26.80;52.30;;;;;;5094417;28;20282;-87
2023/05/31 09:09:00;;;;;;;0.70;0.70;;;26.70;53.00;;;;;;5093819;28;20202;-83
2023/05/31 09:11:28;;;;;;;1.17;1.08;;;26.40;53.70;;;;;;5093395;28;20227;-89
2023/05/31 09:13:55;;;;;;;1.13;0.90;;;25.90;53.50;;;;;;5094158;28;20204;-86
2023/05/31 09:16:24;;;;;;;0.80;0.80;;;25.30;54.30;;;;;;5095787;28;20235;-87
2023/05/31 09:19:01;;;;;;;1.33;1.23;;;24.70;54.40;;;;;;5098500;28;20263;-87
2023/05/31 09:21:28;;;;;;;1.33;1.23;;;24.30;55.70;;;;;;5097810;28;20225;-86
2023/05/31 09:23:56;;;;;;;1.13;0.93;;;24.20;56.80;;;;;;5097981;28;20216;-82
2023/05/31 09:26:23;;;;;;;1.80;0.90;;;24.10;56.80;;;;;;5097574;28;20588;-83
2023/05/31 09:28:51;;;;;;;2.50;1.53;;;23.80;56.80;;;;;;5097913;28;20212;-86
2023/05/31 09:31:18;;;;;;;2.07;1.10;;;23.60;58.10;;;;;;5098299;28;20197;-89
2023/05/31 09:33:48;;;;;;;0.90;0.90;;;23.60;56.90;;;;;;5097661;28;20205;-88
2023/05/31 09:36:23;;;;;;;2.30;1.30;;;23.60;56.70;;;;;;5097739;28;20270;-89
2023/05/31 09:38:50;;;;;;;1.40;1.17;;;23.50;57.00;;;;;;5097746;28;20656;-87
2023/05/31 09:41:19;;;;;;;1.33;0.80;;;23.40;56.10;;;;;;5098003;28;20431;-86
2023/05/31 09:43:47;;;;;;;1.27;0.90;;;23.40;57.20;;;;;;5098012;28;20215;-89
2023/05/31 09:46:17;;;;;;;1.10;1.00;;;23.40;56.50;;;;;;5097775;28;20459;-87
2023/05/31 09:48:44;;;;;;;1.27;1.17;;;23.50;56.80;;;;;;5097718;28;20482;-84
2023/05/31 09:51:13;;;;;;;5.20;1.50;;;23.40;56.50;;;;;;5097428;28;20443;-87
2023/05/31 09:53:45;;;;;;;1.10;1.00;;;23.50;57.70;;;;;;5097479;28;20198;-89
2023/05/31 09:56:18;;;;;;;2.00;1.00;;;23.60;57.20;;;;;;5097588;28;20583;-87
2023/05/31 09:58:45;;;;;;;2.33;1.10;;;23.60;57.10;;;;;;5098362;28;20187;-85
2023/05/31 10:01:12;;;;;;;1.10;1.00;;;23.70;57.60;;;;;;5097335;28;20454;-84
2023/05/31 10:03:41;;;;;;;2.10;0.77;;;23.80;57.50;;;;;;5097162;28;20201;-87
2023/05/31 10:06:09;;;;;;;2.00;1.20;;;23.70;55.90;;;;;;5096816;28;20229;-87
2023/05/31 10:08:35;;;;;;;1.57;1.10;;;23.60;56.60;;;;;;5096985;28;20213;-85
2023/05/31 10:11:03;;;;;;;1.57;1.20;;;23.70;58.10;;;;;;5097829;28;20209;-85
2023/05/31 10:13:31;;;;;;;1.27;1.13;;;24.00;58.00;;;;;;5098524;28;20198;-87
2023/05/31 10:15:58;;;;;;;2.08;0.90;;;24.10;55.70;;;;;;5098361;28;20228;-86
2023/05/31 10:18:29;;;;;;;1.10;0.90;;;24.10;55.20;;;;;;5097885;28;20556;-85
2023/05/31 10:21:02;;;;;;;1.27;0.80;;;24.00;55.10;;;;;;5097124;28;20328;-88
2023/05/31 10:23:30;;;;;;;3.27;1.23;;;24.00;55.60;;;;;;5097310;28;20178;-87
2023/05/31 10:26:10;;;;;;;1.33;0.93;;;24.00;56.20;;;;;;5097086;28;20221;-85
2023/05/31 10:28:40;;;;;;;0.80;0.80;;;24.00;56.60;;;;;;5096805;28;20201;-89
2023/05/31 10:31:10;;;;;;;1.33;1.17;;;24.20;54.90;;;;;;5096859;28;20238;-85
2023/05/31 10:33:40;;;;;;;3.60;1.50;;;24.10;55.10;;;;;;5096823;28;20189;-86
2023/05/31 10:36:09;;;;;;;2.40;0.87;;;24.10;54.60;;;;;;5096788;28;20224;-86
2023/05/31 10:38:43;;;;;;;0.70;0.70;;;23.90;54.50;;;;;;5096582;28;20555;-84
2023/05/31 10:41:16;;;;;;;1.42;0.77;;;23.90;55.40;;;;;;5096667;28;20196;-87
2023/05/31 10:43:48;;;;;;;1.07;0.80;;;23.90;55.80;;;;;;5096335;28;20641;-86
2023/05/31 10:46:20;;;;;;;1.20;1.00;;;23.80;54.60;;;;;;5096362;28;20231;-85
2023/05/31 10:48:52;;;;;;;1.33;1.00;;;23.80;54.90;;;;;;5095927;28;20763;-85
2023/05/31 10:51:38;;;;;;;1.53;0.83;;;23.90;55.10;;;;;;5096121;28;20645;-85
2023/05/31 10:54:05;;;;;;;3.60;1.27;;;23.90;54.90;;;;;;5096296;28;20186;-86
2023/05/31 10:56:32;;;;;;;0.97;0.87;;;23.90;53.80;;;;;;5096131;28;20205;-87
2023/05/31 10:58:59;;;;;;;1.37;0.80;;;23.90;54.10;;;;;;5095703;28;20672;-85
2023/05/31 11:01:29;;;;;;;1.80;0.90;;;24.10;55.00;;;;;;5095722;28;20204;-87
2023/05/31 11:03:57;;;;;;;4.82;1.00;;;24.50;53.90;;;;;;5096142;28;20205;-84
2023/05/31 11:06:27;;;;;;;1.80;0.60;;;24.70;53.20;;;;;;5095409;28;20766;-85
2023/05/31 11:08:59;;;;;;;1.23;0.90;;;24.60;53.40;;;;;;5095941;28;20225;-86
2023/05/31 11:11:44;;;;;;;1.27;1.13;;;24.40;52.80;;;;;;5095917;28;20207;-84
2023/05/31 11:14:25;;;;;;;0.93;0.93;;;24.20;53.40;;;;;;5095617;28;20240;-86
2023/05/31 11:17:22;;;;;;;0.90;0.60;;;24.10;54.20;;;;;;5096157;28;20189;-88
2023/05/31 11:19:53;;;;;;;3.03;1.13;;;23.80;53.60;;;;;;5034072;28;20242;-86
2023/05/31 11:22:27;;;;;;;1.43;1.13;;;23.70;54.40;;;;;;5082647;28;20205;-85
2023/05/31 11:24:55;;;;;;;1.40;1.03;;;23.70;55.10;;;;;;5095937;28;20229;-84
2023/05/31 11:27:22;;;;;;;1.40;1.00;;;23.80;53.70;;;;;;5095479;28;20217;-85
2023/05/31 11:30:00;;;;;;;0.70;0.60;;;23.70;54.40;;;;;;5095489;28;20201;-86
2023/05/31 11:32:55;;;;;;;4.10;1.10;;;23.60;54.00;;;;;;5094991;28;20609;-86
2023/05/31 11:35:23;;;;;;;1.07;0.90;;;23.70;54.70;;;;;;5095433;28;20240;-84
2023/05/31 11:38:04;;;;;;;0.90;0.80;;;23.70;54.30;;;;;;5094653;28;20201;-84
2023/05/31 11:40:31;;;;;;;1.93;1.07;;;23.80;55.90;;;;;;5095776;28;20638;-87
2023/05/31 11:43:05;;;;;;;1.47;1.33;;;23.80;54.80;;;;;;5095948;28;20197;-85
2023/05/31 11:45:33;;;;;;;2.40;0.93;;;23.80;54.60;;;;;;5095710;28;20868;-87
2023/05/31 11:48:08;;;;;;;0.80;0.80;;;23.70;54.20;;;;;;5095124;28;21028;-85
2023/05/31 11:50:35;;;;;;;2.20;0.80;;;23.60;54.90;;;;;;5095397;28;20915;-86
2023/05/31 11:53:05;;;;;;;0.80;0.80;;;23.50;54.90;;;;;;5095190;28;20202;-87
2023/05/31 11:55:35;;;;;;;3.17;0.90;;;23.50;54.40;;;;;;5095446;28;20241;-85
2023/05/31 11:58:02;;;;;;;2.30;0.90;;;23.50;54.70;;;;;;5095578;28;20201;-85
2023/05/31 12:00:31;;;;;;;1.00;0.90;;;23.50;54.80;;;;;;5095600;28;20435;-87
2023/05/31 12:03:02;;;;;;;0.80;0.80;;;23.60;54.40;;;;;;5095689;28;20447;-87
2023/05/31 12:05:29;;;;;;;5.30;1.17;;;23.60;54.20;;;;;;5095180;28;20252;-84
2023/05/31 12:07:57;;;;;;;1.00;0.90;;;23.50;54.40;;;;;;5095302;28;20484;-88
2023/05/31 12:10:27;;;;;;;0.90;0.90;;;23.60;54.60;;;;;;5094905;28;20201;-86
2023/05/31 12:12:54;;;;;;;1.47;0.70;;;23.60;55.00;;;;;;5095191;28;20943;-86
2023/05/31 12:15:21;;;;;;;2.27;1.00;;;23.60;54.50;;;;;;5094779;28;20228;-86
2023/05/31 12:17:48;;;;;;;1.43;0.87;;;23.60;54.80;;;;;;5095115;28;20673;-86
2023/05/31 12:20:14;;;;;;;1.80;0.80;;;23.50;53.80;;;;;;5094367;28;20266;-85
2023/05/31 12:22:41;;;;;;;1.00;0.90;;;23.50;54.00;;;;;;5094472;28;20464;-84
2023/05/31 12:25:09;;;;;;;2.07;0.97;;;23.40;54.00;;;;;;5095188;28;20225;-84
2023/05/31 12:27:38;;;;;;;2.70;0.97;;;23.40;55.40;;;;;;5094671;28;20679;-84
2023/05/31 12:30:07;;;;;;;0.90;0.73;;;23.30;54.30;;;;;;5093946;28;20202;-84
2023/05/31 12:32:34;;;;;;;0.67;0.67;;;23.30;54.40;;;;;;5094261;28;20439;-83
2023/05/31 12:35:06;;;;;;;1.13;0.80;;;23.30;54.80;;;;;;5094354;28;20227;-85
2023/05/31 12:37:36;;;;;;;1.47;0.70;;;23.20;54.40;;;;;;5094333;28;20240;-85
2023/05/31 12:40:10;;;;;;;1.23;0.80;;;23.30;54.00;;;;;;5094160;28;20451;-83
2023/05/31 12:42:38;;;;;;;0.90;0.73;;;23.20;53.70;;;;;;5094205;28;20193;-84
2023/05/31 12:45:05;;;;;;;1.10;0.80;;;23.20;54.10;;;;;;5094108;28;20474;-85
2023/05/31 12:47:33;;;;;;;3.10;1.03;;;23.20;55.20;;;;;;5093890;28;20443;-85
2023/05/31 12:50:05;;;;;;;1.07;0.77;;;23.20;54.40;;;;;;5093861;28;20447;-86
2023/05/31 12:52:33;;;;;;;1.20;1.10;;;23.20;54.30;;;;;;5093992;28;20189;-85
2023/05/31 12:55:00;;;;;;;0.80;0.80;;;23.20;53.60;;;;;;5093437;28;20985;-85